Hlavní strana
METAR-TAF:

METAR-TAF

Letiště :

Stanly County Airport

Albemarle, Severní Karolína, Spojené státy americké

zeměpisná šířka: 35-25-00N, zeměpisná délka: 080-09-03W, výška: 186 m

Aktuální stav počasí

Zpráva byla vytvořena před 13 minutami, v 23:15 UTC
Západojihozápadní vítr 8 kt
Teplota 11°C
Vlhkost vzduchu 62%
Tlak 1005 hPa
Viditelnost: 16.1 km
Polojasno ve výšce 4900 ft
Zataženo ve výšce 6000 ft

METAR: KVUJ 302315Z AUTO 25008KT 10SM SCT049 OVC060 11/04 A2967 RMK AO2 T01140035

Čas: 18:28 (23:28 UTC)


TAF: chybějící

Stav a předpovědi počasí z více než 4 000 letišť (zprávy METAR a TAF).

Červené a žluté tečky na mapě představují dostupné meteorologické stanice.

Když kurzor umístíte na tečku, zobrazí se název stanice.

Pak kliknutím zobrazíte stav a předpověď počasí.

Chcete-li změnit mapu, kliknutím na zelené tlačítko se znaménkem +mapu přiblížíte, kliknutím na zelené tlačítko se znaménkem – mapu oddálíte a kliknutím na zelené šipky přejdete na sousední mapy.


METAR-TAF: